Aviation Digital Data Service (ADDS)

Output produced by METARs form (1147 UTC 25 June 2019)
found at http://www.aviationweather.gov/metar/data/
 
Forecast for: UNNT (TOLMACHEVO , RU)
Text: TAF UNNT 251100Z 2512/2612 18003G08MPS CAVOK
Forecast period: 1200 UTC 25 June 2019 to 1200 UTC 26 June 2019
Forecast type: FROM: standard forecast or significant change
Winds: from the S (180 degrees) at 7 MPH (6 knots; 3.1 m/s)
gusting to 18 MPH (16 knots; 8.2 m/s)
Visibility: 6 or more miles 10+ km)
Ceiling: unknown
Clouds: missing
Weather: NSW  (no significant weather)
Text: TEMPO 2518/2601 0600 FG SCT005
Forecast period: 1800 UTC 25 June 2019 to 0100 UTC 26 June 2019
Forecast type: TEMPORARY: The following changes expected for less than half the time period
Visibility: 0.37 miles (0.60 km)
Ceiling: at least 12,000 feet AGL
Clouds: scattered clouds at 500 feet AGL
Weather: FG  (fog)